ZGGG

Guangzhou Baiyun International Airport

Guangzhou, China
TAF AMD ZGGG 221426Z 2212/2312 04003MPS 7000 SCT040 TX33/2307Z TN25/2222Z TEMPO 2214/2218 2000 TSRA SCT011 SCT030CB BKN033 TEMPO 2304/2310 2500 TSRA SCT011 SCT030CB BKN033
Issued Valid From Valid To
Sep-22 @ 14:26 UTC
(34 minutes ago)
Sep-22 @ 12:00 UTC
(3 hours ago)
Sep-23 @ 12:00 UTC
(in 21 hours)
to
to
to
TAF AMD ZGGG 221426Z 2212/2312 04003MPS 7000 SCT040 TX33/2307Z TN25/2222Z TEMPO 2214/2218 2000 TSRA SCT011 SCT030CB BKN033 TEMPO 2304/2310 2500 TSRA SCT011 SCT030CB BKN033
Issued Sep-22 @ 14:26 UTC
(34 minutes ago)
Valid From Sep-22 @ 12:00 UTC
(3 hours ago)
Valid To Sep-23 @ 12:00 UTC
(in 21 hours)
-
-
-